NOZ6JS ENGM-LIRP
Flight info
| Callsign | NOZ6JS |
|---|---|
| Flight time | 2h 49m |
| Altitude | 35000 |
| Route | VIPPA DCT ARTOR DCT AMRAK/N0436F340 DCT BOMBI DCT GIGET DCT ABUKA DCT KRH DCT NATOR/N0441F350 DCT TRA DCT RIPUS DCT GERSA DCT SOSON DCT ODINA DCT SRN DCT OSBUL DCT EKPAL DCT MIVKI |
| Aircraft | B738/M-SDE2E3FGHIRWXY/LB1 |
Departure
| Time | 2026-05-07 15:55 |
|---|---|
| Airport | Oslo-Gardermoen International Airport (ENGM) |
Arrival
| Time | 2026-05-07 18:45 |
|---|---|
| Airport | Pisa International Airport (LIRP) |
| Time | Latitude | Longitude | Altitude | Speed | Heading |
|---|---|---|---|---|---|
| 2026-05-07 15:25 | 60.19343 | 11.10267 | 684 ft | 0 kts | 16° |
| 2026-05-07 15:46 | 60.19325 | 11.10261 | 679 ft | 4 kts | 11° |
| 2026-05-07 15:46 | 60.19306 | 11.10259 | 679 ft | 4 kts | 336° |
| 2026-05-07 15:46 | 60.19286 | 11.10284 | 677 ft | 4 kts | 332° |
| 2026-05-07 15:47 | 60.19262 | 11.10310 | 676 ft | 4 kts | 327° |
| 2026-05-07 15:47 | 60.19241 | 11.10343 | 678 ft | 4 kts | 310° |
| 2026-05-07 15:47 | 60.19231 | 11.10376 | 678 ft | 0 kts | 286° |
| 2026-05-07 15:50 | 60.19237 | 11.10351 | 677 ft | 5 kts | 301° |
| 2026-05-07 15:50 | 60.19271 | 11.10362 | 680 ft | 7 kts | 79° |
| 2026-05-07 15:50 | 60.19260 | 11.10464 | 680 ft | 7 kts | 107° |
| 2026-05-07 15:50 | 60.19242 | 11.10583 | 681 ft | 12 kts | 106° |
| 2026-05-07 15:51 | 60.19205 | 11.10715 | 681 ft | 10 kts | 123° |
| 2026-05-07 15:51 | 60.19181 | 11.10852 | 683 ft | 10 kts | 106° |
| 2026-05-07 15:51 | 60.19161 | 11.10987 | 681 ft | 10 kts | 106° |
| 2026-05-07 15:51 | 60.19167 | 11.11120 | 679 ft | 13 kts | 45° |
| 2026-05-07 15:52 | 60.19282 | 11.11201 | 684 ft | 22 kts | 16° |
| 2026-05-07 15:52 | 60.19435 | 11.11288 | 682 ft | 23 kts | 17° |
| 2026-05-07 15:52 | 60.19572 | 11.11369 | 679 ft | 19 kts | 16° |
| 2026-05-07 15:52 | 60.19722 | 11.11455 | 682 ft | 25 kts | 16° |
| 2026-05-07 15:53 | 60.19887 | 11.11550 | 684 ft | 24 kts | 16° |
| 2026-05-07 15:53 | 60.20037 | 11.11637 | 682 ft | 18 kts | 16° |
| 2026-05-07 15:53 | 60.20077 | 11.11827 | 684 ft | 18 kts | 107° |
| 2026-05-07 15:53 | 60.20050 | 11.12011 | 684 ft | 13 kts | 106° |
| 2026-05-07 15:54 | 60.20025 | 11.12178 | 686 ft | 8 kts | 120° |
| 2026-05-07 15:54 | 60.19980 | 11.12169 | 680 ft | 10 kts | 194° |
| 2026-05-07 15:54 | 60.19914 | 11.12129 | 687 ft | 20 kts | 197° |
| 2026-05-07 15:54 | 60.19534 | 11.11910 | 682 ft | 93 kts | 196° |
| 2026-05-07 15:55 | 60.18707 | 11.11431 | 683 ft | 152 kts | 196° |
| 2026-05-07 15:55 | 60.17537 | 11.10769 | 870 ft | 186 kts | 195° |
| 2026-05-07 15:55 | 60.16333 | 11.10164 | 1852 ft | 174 kts | 193° |
| 2026-05-07 15:55 | 60.15137 | 11.09613 | 2583 ft | 182 kts | 196° |
| 2026-05-07 15:56 | 60.13824 | 11.08836 | 2921 ft | 210 kts | 198° |
| 2026-05-07 15:56 | 60.12346 | 11.07990 | 3178 ft | 233 kts | 188° |
| 2026-05-07 15:56 | 60.10687 | 11.07688 | 3607 ft | 249 kts | 185° |
| 2026-05-07 15:56 | 60.08910 | 11.07332 | 4134 ft | 262 kts | 186° |
| 2026-05-07 15:57 | 60.07106 | 11.06800 | 5071 ft | 262 kts | 195° |
| 2026-05-07 15:57 | 60.05370 | 11.05637 | 5904 ft | 266 kts | 201° |
| 2026-05-07 15:57 | 60.03634 | 11.04254 | 6740 ft | 270 kts | 203° |
| 2026-05-07 15:57 | 60.01893 | 11.02833 | 7595 ft | 272 kts | 204° |
| 2026-05-07 15:58 | 60.00124 | 11.01399 | 8430 ft | 275 kts | 204° |
| 2026-05-07 15:58 | 59.98459 | 11.00071 | 9234 ft | 278 kts | 204° |
| 2026-05-07 15:58 | 59.96650 | 10.98644 | 10084 ft | 280 kts | 204° |
| 2026-05-07 15:58 | 59.94805 | 10.97200 | 10566 ft | 295 kts | 204° |
| 2026-05-07 15:59 | 59.92810 | 10.95648 | 10759 ft | 319 kts | 204° |
| 2026-05-07 15:59 | 59.90688 | 10.94009 | 11156 ft | 333 kts | 203° |
| 2026-05-07 15:59 | 59.88509 | 10.92342 | 11850 ft | 338 kts | 203° |
| 2026-05-07 15:59 | 59.86304 | 10.90664 | 12650 ft | 339 kts | 204° |
| 2026-05-07 16:00 | 59.84094 | 10.88988 | 13437 ft | 342 kts | 204° |
| 2026-05-07 16:00 | 59.81859 | 10.87296 | 14144 ft | 345 kts | 204° |
| 2026-05-07 16:00 | 59.79596 | 10.85586 | 14726 ft | 351 kts | 204° |
| 2026-05-07 16:00 | 59.77308 | 10.83861 | 15398 ft | 353 kts | 204° |
| 2026-05-07 16:01 | 59.75005 | 10.82125 | 16094 ft | 355 kts | 205° |
| 2026-05-07 16:01 | 59.72680 | 10.80375 | 16737 ft | 359 kts | 205° |
| 2026-05-07 16:01 | 59.70360 | 10.78631 | 17348 ft | 364 kts | 205° |
| 2026-05-07 16:01 | 59.67981 | 10.76846 | 17972 ft | 367 kts | 205° |
| 2026-05-07 16:02 | 59.65578 | 10.75046 | 18577 ft | 371 kts | 205° |
| 2026-05-07 16:02 | 59.63156 | 10.73235 | 19125 ft | 374 kts | 205° |
| 2026-05-07 16:02 | 59.60719 | 10.71416 | 19700 ft | 376 kts | 206° |
| 2026-05-07 16:02 | 59.58262 | 10.69586 | 20238 ft | 379 kts | 206° |
| 2026-05-07 16:03 | 59.55793 | 10.67749 | 20781 ft | 381 kts | 206° |
| 2026-05-07 16:03 | 59.53301 | 10.65897 | 21319 ft | 384 kts | 206° |
| 2026-05-07 16:03 | 59.50788 | 10.64032 | 21834 ft | 387 kts | 206° |
| 2026-05-07 16:03 | 59.48256 | 10.62157 | 22340 ft | 390 kts | 206° |
| 2026-05-07 16:04 | 59.45708 | 10.60273 | 22844 ft | 393 kts | 206° |
| 2026-05-07 16:04 | 59.43141 | 10.58377 | 23338 ft | 396 kts | 206° |
| 2026-05-07 16:04 | 59.40554 | 10.56470 | 23798 ft | 398 kts | 206° |
| 2026-05-07 16:04 | 59.37950 | 10.54554 | 24199 ft | 401 kts | 206° |
| 2026-05-07 16:05 | 59.35331 | 10.52631 | 24595 ft | 403 kts | 206° |
| 2026-05-07 16:05 | 59.32699 | 10.50701 | 24985 ft | 406 kts | 206° |
| 2026-05-07 16:05 | 59.30051 | 10.48762 | 25387 ft | 407 kts | 206° |
| 2026-05-07 16:05 | 59.27388 | 10.46816 | 25760 ft | 410 kts | 206° |
| 2026-05-07 16:06 | 59.24708 | 10.44861 | 26115 ft | 412 kts | 206° |
| 2026-05-07 16:06 | 59.22012 | 10.42897 | 26492 ft | 415 kts | 206° |
| 2026-05-07 16:06 | 59.19303 | 10.40926 | 26867 ft | 416 kts | 206° |
| 2026-05-07 16:06 | 59.16582 | 10.38951 | 27217 ft | 419 kts | 206° |
| 2026-05-07 16:07 | 59.13843 | 10.36965 | 27560 ft | 421 kts | 206° |
| 2026-05-07 16:07 | 59.11087 | 10.34971 | 27901 ft | 423 kts | 206° |
| 2026-05-07 16:07 | 59.08320 | 10.32972 | 28257 ft | 425 kts | 206° |
| 2026-05-07 16:07 | 59.05543 | 10.30971 | 28581 ft | 427 kts | 206° |
| 2026-05-07 16:08 | 59.02785 | 10.28984 | 28877 ft | 429 kts | 206° |
| 2026-05-07 16:08 | 58.99941 | 10.26939 | 29187 ft | 432 kts | 206° |
| 2026-05-07 16:08 | 58.97156 | 10.24942 | 29517 ft | 433 kts | 206° |
| 2026-05-07 16:08 | 58.94271 | 10.23174 | 29816 ft | 440 kts | 199° |
| 2026-05-07 16:09 | 58.91222 | 10.22242 | 30161 ft | 447 kts | 190° |
| 2026-05-07 16:09 | 58.88121 | 10.21847 | 30553 ft | 446 kts | 189° |
| 2026-05-07 16:09 | 58.85035 | 10.21504 | 30929 ft | 444 kts | 189° |
| 2026-05-07 16:09 | 58.81949 | 10.21159 | 31236 ft | 444 kts | 189° |
| 2026-05-07 16:10 | 58.78868 | 10.20795 | 31504 ft | 444 kts | 189° |
| 2026-05-07 16:10 | 58.75781 | 10.20411 | 31818 ft | 444 kts | 189° |
| 2026-05-07 16:10 | 58.72706 | 10.20017 | 32175 ft | 442 kts | 189° |
| 2026-05-07 16:10 | 58.69636 | 10.19616 | 32494 ft | 441 kts | 189° |
| 2026-05-07 16:11 | 58.66573 | 10.19212 | 32758 ft | 442 kts | 189° |
| 2026-05-07 16:11 | 58.63501 | 10.18806 | 33038 ft | 442 kts | 189° |
| 2026-05-07 16:11 | 58.60434 | 10.18403 | 33387 ft | 441 kts | 189° |
| 2026-05-07 16:11 | 58.57381 | 10.18004 | 33682 ft | 440 kts | 189° |
| 2026-05-07 16:12 | 58.54327 | 10.17605 | 33924 ft | 440 kts | 189° |
| 2026-05-07 16:12 | 58.51269 | 10.17206 | 34169 ft | 441 kts | 189° |
| 2026-05-07 16:12 | 58.48214 | 10.16809 | 34436 ft | 439 kts | 189° |
| 2026-05-07 16:12 | 58.45168 | 10.16415 | 34688 ft | 438 kts | 189° |
| 2026-05-07 16:13 | 58.42125 | 10.16021 | 34889 ft | 438 kts | 189° |
| 2026-05-07 16:13 | 58.39082 | 10.15626 | 35089 ft | 438 kts | 189° |
| 2026-05-07 16:13 | 58.36042 | 10.15234 | 35111 ft | 438 kts | 188° |
| 2026-05-07 16:14 | 58.29967 | 10.14460 | 35119 ft | 437 kts | 188° |
| 2026-05-07 16:14 | 58.23896 | 10.13708 | 35137 ft | 438 kts | 188° |
| 2026-05-07 16:15 | 58.17815 | 10.12959 | 35131 ft | 438 kts | 188° |
| 2026-05-07 16:15 | 58.11733 | 10.12210 | 35135 ft | 438 kts | 188° |
| 2026-05-07 16:16 | 58.05642 | 10.11462 | 35127 ft | 438 kts | 188° |
| 2026-05-07 16:16 | 57.99561 | 10.10717 | 35130 ft | 438 kts | 188° |
| 2026-05-07 16:17 | 57.93484 | 10.09975 | 35125 ft | 437 kts | 188° |
| 2026-05-07 16:17 | 57.87418 | 10.09237 | 35128 ft | 436 kts | 188° |
| 2026-05-07 16:18 | 57.81406 | 10.08508 | 35122 ft | 436 kts | 187° |
| 2026-05-07 16:18 | 57.75363 | 10.07778 | 35127 ft | 435 kts | 187° |
| 2026-05-07 16:19 | 57.69327 | 10.07051 | 35123 ft | 434 kts | 187° |
| 2026-05-07 16:19 | 57.63310 | 10.06328 | 35127 ft | 433 kts | 187° |
| 2026-05-07 16:20 | 57.57292 | 10.05608 | 35123 ft | 433 kts | 187° |
| 2026-05-07 16:20 | 57.51285 | 10.04891 | 35127 ft | 432 kts | 187° |
| 2026-05-07 16:21 | 57.45279 | 10.04177 | 35118 ft | 432 kts | 187° |
| 2026-05-07 16:21 | 57.39276 | 10.03465 | 35119 ft | 432 kts | 187° |
| 2026-05-07 16:22 | 57.33279 | 10.02757 | 35111 ft | 432 kts | 187° |
| 2026-05-07 16:22 | 57.27274 | 10.02050 | 35109 ft | 432 kts | 187° |
| 2026-05-07 16:23 | 57.21273 | 10.01346 | 35106 ft | 432 kts | 187° |
| 2026-05-07 16:23 | 57.15277 | 10.00644 | 35106 ft | 432 kts | 187° |
| 2026-05-07 16:24 | 57.09280 | 9.99945 | 35102 ft | 432 kts | 187° |
| 2026-05-07 16:24 | 57.03286 | 9.99249 | 35104 ft | 432 kts | 187° |
| 2026-05-07 16:25 | 56.97288 | 9.98554 | 35104 ft | 432 kts | 187° |
| 2026-05-07 16:25 | 56.91291 | 9.97862 | 35117 ft | 431 kts | 187° |
| 2026-05-07 16:26 | 56.85302 | 9.97172 | 35103 ft | 431 kts | 187° |
| 2026-05-07 16:26 | 56.79313 | 9.96486 | 35118 ft | 431 kts | 187° |
| 2026-05-07 16:27 | 56.73325 | 9.95801 | 35104 ft | 431 kts | 186° |
| 2026-05-07 16:27 | 56.67339 | 9.95118 | 35109 ft | 431 kts | 186° |
| 2026-05-07 16:28 | 56.61354 | 9.94439 | 35101 ft | 431 kts | 186° |
| 2026-05-07 16:28 | 56.56385 | 9.93876 | 35098 ft | 430 kts | 186° |
| 2026-05-07 16:29 | 56.50411 | 9.93201 | 35105 ft | 430 kts | 186° |
| 2026-05-07 16:29 | 56.44445 | 9.92529 | 35103 ft | 430 kts | 186° |
| 2026-05-07 16:30 | 56.38476 | 9.91859 | 35099 ft | 430 kts | 186° |
| 2026-05-07 16:30 | 56.32502 | 9.91190 | 35101 ft | 430 kts | 186° |
| 2026-05-07 16:31 | 56.26534 | 9.90524 | 35098 ft | 430 kts | 186° |
| 2026-05-07 16:31 | 56.20562 | 9.89860 | 35098 ft | 430 kts | 186° |
| 2026-05-07 16:32 | 56.14592 | 9.89199 | 35098 ft | 430 kts | 186° |
| 2026-05-07 16:32 | 56.08623 | 9.88539 | 35101 ft | 430 kts | 186° |
| 2026-05-07 16:33 | 56.02661 | 9.87882 | 35099 ft | 429 kts | 186° |
| 2026-05-07 16:33 | 55.96697 | 9.87227 | 35109 ft | 429 kts | 186° |
| 2026-05-07 16:34 | 55.90731 | 9.86574 | 35100 ft | 429 kts | 186° |
| 2026-05-07 16:34 | 55.84771 | 9.85923 | 35107 ft | 429 kts | 186° |
| 2026-05-07 16:35 | 55.78842 | 9.85278 | 35105 ft | 429 kts | 185° |
| 2026-05-07 16:35 | 55.72884 | 9.84631 | 35108 ft | 429 kts | 185° |
| 2026-05-07 16:36 | 55.66920 | 9.83987 | 35106 ft | 429 kts | 185° |
| 2026-05-07 16:36 | 55.60958 | 9.83344 | 35115 ft | 429 kts | 185° |
| 2026-05-07 16:37 | 55.54994 | 9.82703 | 35112 ft | 429 kts | 185° |
| 2026-05-07 16:37 | 55.49036 | 9.82064 | 35111 ft | 429 kts | 185° |
| 2026-05-07 16:38 | 55.43076 | 9.81427 | 35109 ft | 429 kts | 185° |
| 2026-05-07 16:38 | 55.37107 | 9.80791 | 35111 ft | 429 kts | 185° |
| 2026-05-07 16:39 | 55.31144 | 9.80158 | 35111 ft | 429 kts | 185° |
| 2026-05-07 16:39 | 55.25189 | 9.79528 | 35123 ft | 429 kts | 185° |
| 2026-05-07 16:40 | 55.19224 | 9.78898 | 35119 ft | 429 kts | 185° |
| 2026-05-07 16:40 | 55.13257 | 9.78270 | 35129 ft | 429 kts | 185° |
| 2026-05-07 16:41 | 55.07294 | 9.77644 | 35127 ft | 429 kts | 185° |
| 2026-05-07 16:41 | 55.01330 | 9.77020 | 35134 ft | 429 kts | 185° |
| 2026-05-07 16:42 | 54.95365 | 9.76398 | 35129 ft | 429 kts | 185° |
| 2026-05-07 16:42 | 54.89400 | 9.75777 | 35131 ft | 429 kts | 185° |
| 2026-05-07 16:43 | 54.83441 | 9.75159 | 35126 ft | 429 kts | 185° |
| 2026-05-07 16:43 | 54.77545 | 9.74150 | 35124 ft | 428 kts | 189° |
| 2026-05-07 16:44 | 54.71651 | 9.72775 | 35119 ft | 427 kts | 189° |
| 2026-05-07 16:44 | 54.65756 | 9.71396 | 35111 ft | 427 kts | 189° |
| 2026-05-07 16:45 | 54.59861 | 9.70064 | 35103 ft | 427 kts | 189° |
| 2026-05-07 16:45 | 54.53973 | 9.68764 | 35107 ft | 427 kts | 189° |
| 2026-05-07 16:46 | 54.48083 | 9.67474 | 35102 ft | 426 kts | 188° |
| 2026-05-07 16:46 | 54.42202 | 9.66190 | 35106 ft | 426 kts | 189° |
| 2026-05-07 16:47 | 54.36310 | 9.64907 | 35100 ft | 426 kts | 188° |
| 2026-05-07 16:47 | 54.30435 | 9.63631 | 35106 ft | 426 kts | 188° |
| 2026-05-07 16:48 | 54.24553 | 9.62357 | 35102 ft | 426 kts | 188° |
| 2026-05-07 16:48 | 54.18683 | 9.61089 | 35103 ft | 425 kts | 188° |
| 2026-05-07 16:49 | 54.12804 | 9.59823 | 35099 ft | 425 kts | 188° |
| 2026-05-07 16:49 | 54.06934 | 9.58562 | 35098 ft | 425 kts | 188° |
| 2026-05-07 16:50 | 54.01094 | 9.57311 | 35091 ft | 426 kts | 188° |
| 2026-05-07 16:50 | 53.95224 | 9.56058 | 35092 ft | 426 kts | 188° |
| 2026-05-07 16:51 | 53.89341 | 9.54805 | 35088 ft | 426 kts | 188° |
| 2026-05-07 16:51 | 53.83461 | 9.53557 | 35088 ft | 426 kts | 188° |
| 2026-05-07 16:52 | 53.77570 | 9.52309 | 35088 ft | 426 kts | 188° |
| 2026-05-07 16:52 | 53.71682 | 9.51066 | 35091 ft | 427 kts | 188° |
| 2026-05-07 16:53 | 53.65790 | 9.49826 | 35087 ft | 427 kts | 188° |
| 2026-05-07 16:53 | 53.59893 | 9.48588 | 35092 ft | 427 kts | 188° |
| 2026-05-07 16:54 | 53.53995 | 9.47353 | 35090 ft | 427 kts | 188° |
| 2026-05-07 16:54 | 53.48096 | 9.46122 | 35090 ft | 427 kts | 188° |
| 2026-05-07 16:55 | 53.42195 | 9.44893 | 35084 ft | 427 kts | 188° |
| 2026-05-07 16:55 | 53.36297 | 9.43669 | 35084 ft | 428 kts | 188° |
| 2026-05-07 16:56 | 53.30388 | 9.42445 | 35074 ft | 428 kts | 188° |
| 2026-05-07 16:56 | 53.21530 | 9.40618 | 35070 ft | 427 kts | 188° |
| 2026-05-07 16:57 | 53.15667 | 9.39413 | 35073 ft | 427 kts | 189° |
| 2026-05-07 16:57 | 53.09773 | 9.38204 | 35070 ft | 427 kts | 189° |
| 2026-05-07 16:58 | 53.03880 | 9.37000 | 35074 ft | 426 kts | 189° |
| 2026-05-07 16:58 | 52.97993 | 9.35799 | 35071 ft | 426 kts | 189° |
| 2026-05-07 16:59 | 52.92110 | 9.34604 | 35073 ft | 425 kts | 189° |
| 2026-05-07 16:59 | 52.86239 | 9.33413 | 35072 ft | 425 kts | 189° |
| 2026-05-07 17:00 | 52.80376 | 9.32227 | 35069 ft | 424 kts | 189° |
| 2026-05-07 17:00 | 52.74526 | 9.31048 | 35091 ft | 423 kts | 189° |
| 2026-05-07 17:01 | 52.68690 | 9.29874 | 35099 ft | 421 kts | 189° |
| 2026-05-07 17:01 | 52.62878 | 9.28708 | 35089 ft | 421 kts | 189° |
| 2026-05-07 17:02 | 52.57075 | 9.27547 | 35091 ft | 420 kts | 189° |
| 2026-05-07 17:02 | 52.51283 | 9.26391 | 35098 ft | 419 kts | 189° |
| 2026-05-07 17:03 | 52.45491 | 9.25238 | 35096 ft | 419 kts | 189° |
| 2026-05-07 17:03 | 52.39696 | 9.24088 | 35100 ft | 419 kts | 189° |
| 2026-05-07 17:04 | 52.33897 | 9.22940 | 35102 ft | 420 kts | 189° |
| 2026-05-07 17:04 | 52.28085 | 9.21792 | 35105 ft | 421 kts | 189° |
| 2026-05-07 17:05 | 52.22261 | 9.20646 | 35107 ft | 422 kts | 189° |
| 2026-05-07 17:05 | 52.16456 | 9.19505 | 35102 ft | 424 kts | 188° |
| 2026-05-07 17:06 | 52.10603 | 9.18359 | 35090 ft | 424 kts | 188° |
| 2026-05-07 17:06 | 52.04746 | 9.17215 | 35088 ft | 424 kts | 188° |
| 2026-05-07 17:07 | 51.98882 | 9.16073 | 35081 ft | 424 kts | 188° |
| 2026-05-07 17:07 | 51.93018 | 9.14933 | 35086 ft | 424 kts | 188° |
| 2026-05-07 17:08 | 51.87151 | 9.13796 | 35073 ft | 424 kts | 188° |
| 2026-05-07 17:08 | 51.81282 | 9.12662 | 35074 ft | 424 kts | 188° |
| 2026-05-07 17:09 | 51.75423 | 9.11533 | 35072 ft | 424 kts | 188° |
| 2026-05-07 17:09 | 51.69567 | 9.10407 | 35070 ft | 424 kts | 188° |
| 2026-05-07 17:10 | 51.63765 | 9.09294 | 35071 ft | 423 kts | 188° |
| 2026-05-07 17:10 | 51.57917 | 9.08175 | 35073 ft | 423 kts | 188° |
| 2026-05-07 17:11 | 51.52069 | 9.07059 | 35072 ft | 423 kts | 188° |
| 2026-05-07 17:11 | 51.46228 | 9.05947 | 35072 ft | 423 kts | 188° |
| 2026-05-07 17:12 | 51.40386 | 9.04839 | 35066 ft | 423 kts | 188° |
| 2026-05-07 17:12 | 51.34547 | 9.03733 | 35071 ft | 422 kts | 188° |
| 2026-05-07 17:13 | 51.28711 | 9.02631 | 35072 ft | 422 kts | 188° |
| 2026-05-07 17:13 | 51.22878 | 9.01532 | 35075 ft | 423 kts | 188° |
| 2026-05-07 17:14 | 51.17034 | 9.00434 | 35067 ft | 423 kts | 188° |
| 2026-05-07 17:14 | 51.11220 | 8.99344 | 35066 ft | 423 kts | 188° |
| 2026-05-07 17:15 | 51.05369 | 8.98251 | 35069 ft | 423 kts | 188° |
| 2026-05-07 17:15 | 50.99475 | 8.97152 | 35066 ft | 424 kts | 188° |
| 2026-05-07 17:16 | 50.93654 | 8.96069 | 35063 ft | 424 kts | 188° |
| 2026-05-07 17:16 | 50.87795 | 8.94982 | 35058 ft | 424 kts | 188° |
| 2026-05-07 17:17 | 50.81930 | 8.93897 | 35054 ft | 424 kts | 188° |
| 2026-05-07 17:17 | 50.77016 | 8.92990 | 35052 ft | 424 kts | 188° |
| 2026-05-07 17:18 | 50.70201 | 8.91735 | 35054 ft | 424 kts | 188° |
| 2026-05-07 17:18 | 50.65293 | 8.90833 | 35056 ft | 424 kts | 188° |
| 2026-05-07 17:19 | 50.59437 | 8.89760 | 35052 ft | 423 kts | 188° |
| 2026-05-07 17:19 | 50.53589 | 8.88691 | 35051 ft | 423 kts | 188° |
| 2026-05-07 17:20 | 50.47740 | 8.87625 | 35048 ft | 423 kts | 188° |
| 2026-05-07 17:20 | 50.41904 | 8.86563 | 35047 ft | 422 kts | 188° |
| 2026-05-07 17:21 | 50.36074 | 8.85505 | 35048 ft | 422 kts | 188° |
| 2026-05-07 17:21 | 50.30267 | 8.84454 | 35055 ft | 421 kts | 188° |
| 2026-05-07 17:22 | 50.24445 | 8.83402 | 35044 ft | 421 kts | 188° |
| 2026-05-07 17:22 | 50.18629 | 8.82355 | 35051 ft | 420 kts | 188° |
| 2026-05-07 17:23 | 50.12816 | 8.81310 | 35051 ft | 421 kts | 188° |
| 2026-05-07 17:23 | 50.07001 | 8.80267 | 35048 ft | 420 kts | 188° |
| 2026-05-07 17:24 | 50.01200 | 8.79145 | 35048 ft | 420 kts | 189° |
| 2026-05-07 17:24 | 49.95411 | 8.77916 | 35053 ft | 420 kts | 189° |
| 2026-05-07 17:25 | 49.89659 | 8.76704 | 35050 ft | 420 kts | 189° |
| 2026-05-07 17:25 | 49.83826 | 8.75494 | 35044 ft | 421 kts | 189° |
| 2026-05-07 17:26 | 49.77998 | 8.74290 | 35055 ft | 429 kts | 189° |
| 2026-05-07 17:26 | 49.72016 | 8.73058 | 35054 ft | 438 kts | 189° |
| 2026-05-07 17:27 | 49.65921 | 8.71814 | 35056 ft | 445 kts | 189° |
| 2026-05-07 17:27 | 49.59746 | 8.70572 | 35041 ft | 449 kts | 189° |
| 2026-05-07 17:28 | 49.53522 | 8.69321 | 35045 ft | 451 kts | 189° |
| 2026-05-07 17:28 | 49.47289 | 8.68070 | 35048 ft | 452 kts | 189° |
| 2026-05-07 17:29 | 49.41047 | 8.66811 | 35044 ft | 452 kts | 189° |
| 2026-05-07 17:29 | 49.34803 | 8.65547 | 35042 ft | 452 kts | 189° |
| 2026-05-07 17:30 | 49.28558 | 8.64420 | 35045 ft | 452 kts | 187° |
| 2026-05-07 17:30 | 49.22288 | 8.63626 | 35042 ft | 452 kts | 186° |
| 2026-05-07 17:31 | 49.16011 | 8.62858 | 35045 ft | 452 kts | 186° |
| 2026-05-07 17:31 | 49.09745 | 8.62047 | 35043 ft | 452 kts | 187° |
| 2026-05-07 17:32 | 49.03482 | 8.61213 | 35043 ft | 452 kts | 187° |
| 2026-05-07 17:32 | 48.97215 | 8.60374 | 35049 ft | 452 kts | 187° |
| 2026-05-07 17:33 | 48.90948 | 8.59537 | 35041 ft | 452 kts | 187° |
| 2026-05-07 17:33 | 48.84680 | 8.58704 | 35043 ft | 452 kts | 187° |
| 2026-05-07 17:34 | 48.78404 | 8.57873 | 35039 ft | 453 kts | 187° |
| 2026-05-07 17:34 | 48.72094 | 8.57038 | 35036 ft | 457 kts | 188° |
| 2026-05-07 17:35 | 48.65700 | 8.56193 | 35048 ft | 465 kts | 188° |
| 2026-05-07 17:35 | 48.59229 | 8.55342 | 35041 ft | 468 kts | 188° |
| 2026-05-07 17:36 | 48.52770 | 8.54497 | 35044 ft | 469 kts | 188° |
| 2026-05-07 17:36 | 48.46264 | 8.53647 | 35037 ft | 470 kts | 188° |
| 2026-05-07 17:37 | 48.39753 | 8.52798 | 35040 ft | 469 kts | 188° |
| 2026-05-07 17:37 | 48.33248 | 8.51952 | 35041 ft | 469 kts | 188° |
| 2026-05-07 17:38 | 48.26755 | 8.51109 | 35036 ft | 468 kts | 188° |
| 2026-05-07 17:38 | 48.20281 | 8.50271 | 35044 ft | 466 kts | 188° |
| 2026-05-07 17:39 | 48.13817 | 8.49436 | 35040 ft | 466 kts | 188° |
| 2026-05-07 17:39 | 48.07371 | 8.48606 | 35038 ft | 465 kts | 188° |
| 2026-05-07 17:40 | 48.00927 | 8.47778 | 35049 ft | 464 kts | 188° |
| 2026-05-07 17:40 | 47.94488 | 8.46952 | 35033 ft | 464 kts | 188° |
| 2026-05-07 17:41 | 47.88699 | 8.46212 | 35041 ft | 464 kts | 188° |
| 2026-05-07 17:41 | 47.82271 | 8.45391 | 35037 ft | 463 kts | 188° |
| 2026-05-07 17:42 | 47.75852 | 8.44574 | 35026 ft | 463 kts | 188° |
| 2026-05-07 17:42 | 47.69440 | 8.43794 | 35034 ft | 463 kts | 186° |
| 2026-05-07 17:43 | 47.62970 | 8.44407 | 35019 ft | 468 kts | 178° |
| 2026-05-07 17:43 | 47.56502 | 8.45476 | 35021 ft | 467 kts | 178° |
| 2026-05-07 17:44 | 47.50035 | 8.46488 | 35011 ft | 467 kts | 178° |
| 2026-05-07 17:44 | 47.43584 | 8.47440 | 35023 ft | 466 kts | 178° |
| 2026-05-07 17:45 | 47.37129 | 8.48380 | 35015 ft | 466 kts | 178° |
| 2026-05-07 17:45 | 47.30681 | 8.49321 | 35021 ft | 466 kts | 179° |
| 2026-05-07 17:46 | 47.24233 | 8.50261 | 35013 ft | 466 kts | 179° |
| 2026-05-07 17:46 | 47.17775 | 8.51202 | 35016 ft | 466 kts | 179° |
| 2026-05-07 17:47 | 47.11367 | 8.52134 | 35030 ft | 466 kts | 179° |
| 2026-05-07 17:47 | 47.04869 | 8.53076 | 35011 ft | 466 kts | 179° |
| 2026-05-07 17:48 | 46.98415 | 8.54009 | 35023 ft | 466 kts | 179° |
| 2026-05-07 17:48 | 46.91971 | 8.54937 | 35007 ft | 465 kts | 179° |
| 2026-05-07 17:49 | 46.85540 | 8.55861 | 35023 ft | 464 kts | 179° |
| 2026-05-07 17:49 | 46.79124 | 8.56782 | 35015 ft | 463 kts | 179° |
| 2026-05-07 17:50 | 46.72714 | 8.57698 | 35025 ft | 464 kts | 180° |
| 2026-05-07 17:50 | 46.66268 | 8.58617 | 35007 ft | 467 kts | 180° |
| 2026-05-07 17:51 | 46.59819 | 8.59536 | 35006 ft | 466 kts | 180° |
| 2026-05-07 17:51 | 46.53370 | 8.60454 | 34993 ft | 465 kts | 180° |
| 2026-05-07 17:52 | 46.46939 | 8.61365 | 35007 ft | 464 kts | 180° |
| 2026-05-07 17:52 | 46.40565 | 8.62264 | 34990 ft | 463 kts | 180° |
| 2026-05-07 17:53 | 46.34130 | 8.63172 | 34985 ft | 460 kts | 180° |
| 2026-05-07 17:53 | 46.27793 | 8.64065 | 35004 ft | 462 kts | 180° |
| 2026-05-07 17:54 | 46.21386 | 8.64962 | 34945 ft | 463 kts | 180° |
| 2026-05-07 17:54 | 46.15001 | 8.65856 | 34963 ft | 460 kts | 180° |
| 2026-05-07 17:55 | 46.08706 | 8.67898 | 34971 ft | 470 kts | 164° |
| 2026-05-07 17:55 | 46.02842 | 8.72236 | 34971 ft | 476 kts | 156° |
| 2026-05-07 17:56 | 45.97060 | 8.76904 | 34972 ft | 476 kts | 156° |
| 2026-05-07 17:56 | 45.91251 | 8.81502 | 34957 ft | 476 kts | 157° |
| 2026-05-07 17:57 | 45.86414 | 8.85272 | 34965 ft | 476 kts | 157° |
| 2026-05-07 17:57 | 45.79603 | 8.90554 | 34962 ft | 476 kts | 157° |
| 2026-05-07 17:58 | 45.73774 | 8.95069 | 34965 ft | 476 kts | 157° |
| 2026-05-07 17:58 | 45.67951 | 8.99570 | 34962 ft | 476 kts | 157° |
| 2026-05-07 17:59 | 45.62538 | 9.05147 | 34956 ft | 488 kts | 139° |
| 2026-05-07 17:59 | 45.57947 | 9.12355 | 34956 ft | 491 kts | 136° |
| 2026-05-07 18:00 | 45.53446 | 9.19620 | 34957 ft | 492 kts | 137° |
| 2026-05-07 18:00 | 45.48848 | 9.26919 | 34959 ft | 492 kts | 137° |
| 2026-05-07 18:01 | 45.44275 | 9.34080 | 34968 ft | 492 kts | 137° |
| 2026-05-07 18:01 | 45.39626 | 9.41322 | 34961 ft | 492 kts | 137° |
| 2026-05-07 18:02 | 45.32717 | 9.52058 | 34961 ft | 493 kts | 137° |
| 2026-05-07 18:03 | 45.28084 | 9.59239 | 34959 ft | 493 kts | 138° |
| 2026-05-07 18:03 | 45.24271 | 9.65147 | 34939 ft | 471 kts | 138° |
| 2026-05-07 18:03 | 45.22128 | 9.68469 | 34929 ft | 455 kts | 138° |
| 2026-05-07 18:04 | 45.20006 | 9.71747 | 34942 ft | 451 kts | 139° |
| 2026-05-07 18:04 | 45.17950 | 9.74905 | 34840 ft | 452 kts | 139° |
| 2026-05-07 18:04 | 45.15209 | 9.79106 | 34417 ft | 450 kts | 139° |
| 2026-05-07 18:04 | 45.13100 | 9.82343 | 34034 ft | 446 kts | 139° |
| 2026-05-07 18:05 | 45.11709 | 9.84475 | 33766 ft | 444 kts | 139° |
| 2026-05-07 18:05 | 45.09620 | 9.87678 | 33344 ft | 441 kts | 139° |
| 2026-05-07 18:05 | 45.07545 | 9.90854 | 32945 ft | 438 kts | 139° |
| 2026-05-07 18:05 | 45.05486 | 9.94004 | 32554 ft | 434 kts | 139° |
| 2026-05-07 18:06 | 45.03443 | 9.97124 | 32166 ft | 431 kts | 139° |
| 2026-05-07 18:06 | 45.01417 | 10.00216 | 31792 ft | 428 kts | 139° |
| 2026-05-07 18:06 | 44.99400 | 10.03289 | 31424 ft | 425 kts | 139° |
| 2026-05-07 18:06 | 44.97397 | 10.06339 | 31072 ft | 422 kts | 139° |
| 2026-05-07 18:07 | 44.95407 | 10.09364 | 30704 ft | 419 kts | 139° |
| 2026-05-07 18:07 | 44.93427 | 10.12372 | 30339 ft | 417 kts | 139° |
| 2026-05-07 18:07 | 44.91458 | 10.15359 | 29969 ft | 415 kts | 139° |
| 2026-05-07 18:07 | 44.89496 | 10.18336 | 29537 ft | 412 kts | 139° |
| 2026-05-07 18:08 | 44.87557 | 10.21271 | 29168 ft | 408 kts | 139° |
| 2026-05-07 18:08 | 44.85627 | 10.24184 | 28784 ft | 403 kts | 141° |
| 2026-05-07 18:08 | 44.83441 | 10.26492 | 28419 ft | 383 kts | 162° |
| 2026-05-07 18:08 | 44.80981 | 10.27595 | 28064 ft | 365 kts | 178° |
| 2026-05-07 18:09 | 44.78486 | 10.27757 | 27580 ft | 353 kts | 193° |
| 2026-05-07 18:09 | 44.76115 | 10.27108 | 27233 ft | 343 kts | 201° |
| 2026-05-07 18:09 | 44.73824 | 10.26226 | 26860 ft | 340 kts | 202° |
| 2026-05-07 18:09 | 44.71561 | 10.25302 | 26508 ft | 337 kts | 202° |
| 2026-05-07 18:10 | 44.69314 | 10.24385 | 26161 ft | 335 kts | 202° |
| 2026-05-07 18:10 | 44.67080 | 10.23488 | 25821 ft | 333 kts | 201° |
| 2026-05-07 18:10 | 44.64853 | 10.22608 | 25482 ft | 331 kts | 201° |
| 2026-05-07 18:10 | 44.62638 | 10.21742 | 25152 ft | 330 kts | 201° |
| 2026-05-07 18:11 | 44.60432 | 10.20885 | 24814 ft | 328 kts | 200° |
| 2026-05-07 18:11 | 44.58238 | 10.20036 | 24485 ft | 326 kts | 200° |
| 2026-05-07 18:11 | 44.56056 | 10.19194 | 24162 ft | 325 kts | 200° |
| 2026-05-07 18:11 | 44.53875 | 10.18352 | 23832 ft | 324 kts | 200° |
| 2026-05-07 18:12 | 44.51700 | 10.17515 | 23453 ft | 324 kts | 200° |
| 2026-05-07 18:12 | 44.49534 | 10.16682 | 23089 ft | 323 kts | 199° |
| 2026-05-07 18:12 | 44.47366 | 10.15861 | 22714 ft | 321 kts | 199° |
| 2026-05-07 18:12 | 44.45206 | 10.15087 | 22357 ft | 320 kts | 198° |
| 2026-05-07 18:13 | 44.43048 | 10.14329 | 21998 ft | 319 kts | 198° |
| 2026-05-07 18:13 | 44.40932 | 10.13587 | 21658 ft | 317 kts | 198° |
| 2026-05-07 18:13 | 44.38800 | 10.12837 | 21333 ft | 315 kts | 198° |
| 2026-05-07 18:13 | 44.36679 | 10.12089 | 21000 ft | 314 kts | 198° |
| 2026-05-07 18:14 | 44.34567 | 10.11344 | 20667 ft | 312 kts | 198° |
| 2026-05-07 18:14 | 44.32469 | 10.10603 | 20348 ft | 310 kts | 197° |
| 2026-05-07 18:14 | 44.30378 | 10.09864 | 20029 ft | 309 kts | 197° |
| 2026-05-07 18:14 | 44.28296 | 10.09130 | 19695 ft | 308 kts | 197° |
| 2026-05-07 18:15 | 44.26223 | 10.08400 | 19382 ft | 308 kts | 197° |
| 2026-05-07 18:15 | 44.24144 | 10.07666 | 19075 ft | 310 kts | 197° |
| 2026-05-07 18:15 | 44.22031 | 10.06982 | 18754 ft | 316 kts | 191° |
| 2026-05-07 18:15 | 44.19806 | 10.06646 | 18412 ft | 324 kts | 187° |
| 2026-05-07 18:16 | 44.17554 | 10.06435 | 18034 ft | 325 kts | 186° |
| 2026-05-07 18:16 | 44.15301 | 10.06253 | 17662 ft | 324 kts | 185° |
| 2026-05-07 18:16 | 44.13057 | 10.06071 | 17306 ft | 322 kts | 185° |
| 2026-05-07 18:16 | 44.10825 | 10.05881 | 16977 ft | 320 kts | 185° |
| 2026-05-07 18:17 | 44.08611 | 10.05684 | 16644 ft | 318 kts | 186° |
| 2026-05-07 18:17 | 44.06412 | 10.05482 | 16321 ft | 316 kts | 185° |
| 2026-05-07 18:17 | 44.04223 | 10.05276 | 15991 ft | 315 kts | 185° |
| 2026-05-07 18:17 | 44.02045 | 10.05069 | 15670 ft | 313 kts | 185° |
| 2026-05-07 18:18 | 43.99879 | 10.04862 | 15352 ft | 311 kts | 185° |
| 2026-05-07 18:18 | 43.97729 | 10.04655 | 15033 ft | 309 kts | 185° |
| 2026-05-07 18:18 | 43.95589 | 10.04448 | 14717 ft | 308 kts | 185° |
| 2026-05-07 18:18 | 43.93461 | 10.04243 | 14403 ft | 306 kts | 185° |
| 2026-05-07 18:19 | 43.91341 | 10.04038 | 14087 ft | 305 kts | 185° |
| 2026-05-07 18:19 | 43.89226 | 10.03834 | 13769 ft | 304 kts | 185° |
| 2026-05-07 18:19 | 43.87122 | 10.03631 | 13420 ft | 302 kts | 185° |
| 2026-05-07 18:19 | 43.85033 | 10.03430 | 13082 ft | 301 kts | 185° |
| 2026-05-07 18:20 | 43.82948 | 10.03229 | 12757 ft | 299 kts | 185° |
| 2026-05-07 18:20 | 43.80883 | 10.03030 | 12439 ft | 297 kts | 185° |
| 2026-05-07 18:20 | 43.78824 | 10.02832 | 12126 ft | 295 kts | 185° |
| 2026-05-07 18:20 | 43.76780 | 10.02636 | 11818 ft | 294 kts | 185° |
| 2026-05-07 18:21 | 43.74751 | 10.02441 | 11509 ft | 292 kts | 185° |
| 2026-05-07 18:21 | 43.72727 | 10.02246 | 11203 ft | 291 kts | 185° |
| 2026-05-07 18:21 | 43.70715 | 10.02053 | 10895 ft | 289 kts | 185° |
| 2026-05-07 18:21 | 43.68713 | 10.01861 | 10592 ft | 288 kts | 185° |
| 2026-05-07 18:22 | 43.66716 | 10.01670 | 10289 ft | 287 kts | 185° |
| 2026-05-07 18:22 | 43.65400 | 10.01544 | 10165 ft | 283 kts | 185° |
| 2026-05-07 18:22 | 43.62817 | 10.01297 | 9971 ft | 274 kts | 185° |
| 2026-05-07 18:22 | 43.60917 | 10.01115 | 9662 ft | 274 kts | 185° |
| 2026-05-07 18:23 | 43.59023 | 10.00934 | 9375 ft | 272 kts | 185° |
| 2026-05-07 18:23 | 43.57164 | 10.00756 | 9090 ft | 271 kts | 185° |
| 2026-05-07 18:23 | 43.55266 | 10.00574 | 8790 ft | 270 kts | 185° |
| 2026-05-07 18:23 | 43.53421 | 10.00398 | 8518 ft | 268 kts | 185° |
| 2026-05-07 18:24 | 43.51571 | 10.00222 | 8272 ft | 265 kts | 185° |
| 2026-05-07 18:24 | 43.49744 | 10.00048 | 8050 ft | 262 kts | 184° |
| 2026-05-07 18:24 | 43.47940 | 9.99876 | 7839 ft | 258 kts | 184° |
| 2026-05-07 18:24 | 43.46157 | 9.99706 | 7635 ft | 255 kts | 184° |
| 2026-05-07 18:25 | 43.44401 | 9.99539 | 7433 ft | 251 kts | 184° |
| 2026-05-07 18:25 | 43.42672 | 9.99374 | 7233 ft | 248 kts | 184° |
| 2026-05-07 18:25 | 43.40948 | 9.99210 | 7021 ft | 250 kts | 184° |
| 2026-05-07 18:25 | 43.39177 | 9.99103 | 6699 ft | 261 kts | 174° |
| 2026-05-07 18:26 | 43.37482 | 9.99942 | 6394 ft | 262 kts | 144° |
| 2026-05-07 18:26 | 43.36328 | 10.01833 | 6105 ft | 261 kts | 114° |
| 2026-05-07 18:26 | 43.36020 | 10.04252 | 5840 ft | 259 kts | 84° |
| 2026-05-07 18:26 | 43.36618 | 10.06541 | 5583 ft | 257 kts | 55° |
| 2026-05-07 18:27 | 43.37869 | 10.08266 | 5339 ft | 254 kts | 37° |
| 2026-05-07 18:27 | 43.39285 | 10.09710 | 5074 ft | 253 kts | 36° |
| 2026-05-07 18:27 | 43.40713 | 10.11128 | 4816 ft | 253 kts | 36° |
| 2026-05-07 18:27 | 43.42134 | 10.12547 | 4546 ft | 252 kts | 36° |
| 2026-05-07 18:28 | 43.43525 | 10.13952 | 4276 ft | 251 kts | 36° |
| 2026-05-07 18:28 | 43.44933 | 10.15384 | 4159 ft | 245 kts | 36° |
| 2026-05-07 18:28 | 43.46281 | 10.16763 | 4031 ft | 245 kts | 36° |
| 2026-05-07 18:28 | 43.47653 | 10.18169 | 4003 ft | 246 kts | 36° |
| 2026-05-07 18:29 | 43.49006 | 10.19557 | 3985 ft | 238 kts | 36° |
| 2026-05-07 18:29 | 43.50307 | 10.20881 | 3970 ft | 226 kts | 36° |
| 2026-05-07 18:29 | 43.51547 | 10.22139 | 3978 ft | 218 kts | 36° |
| 2026-05-07 18:29 | 43.52764 | 10.23374 | 3987 ft | 218 kts | 36° |
| 2026-05-07 18:30 | 43.54002 | 10.24630 | 4003 ft | 223 kts | 36° |
| 2026-05-07 18:30 | 43.55263 | 10.25919 | 4006 ft | 227 kts | 36° |
| 2026-05-07 18:30 | 43.56529 | 10.27221 | 3995 ft | 227 kts | 36° |
| 2026-05-07 18:30 | 43.57789 | 10.28520 | 3992 ft | 226 kts | 36° |
| 2026-05-07 18:31 | 43.59046 | 10.29815 | 3994 ft | 225 kts | 36° |
| 2026-05-07 18:31 | 43.60301 | 10.31107 | 3992 ft | 225 kts | 36° |
| 2026-05-07 18:31 | 43.61652 | 10.32101 | 3977 ft | 222 kts | 10° |
| 2026-05-07 18:31 | 43.63159 | 10.31948 | 3991 ft | 218 kts | 335° |
| 2026-05-07 18:32 | 43.64359 | 10.30687 | 4010 ft | 220 kts | 310° |
| 2026-05-07 18:32 | 43.65351 | 10.29039 | 4003 ft | 224 kts | 308° |
| 2026-05-07 18:32 | 43.66321 | 10.27357 | 3992 ft | 223 kts | 308° |
| 2026-05-07 18:32 | 43.67282 | 10.25684 | 3986 ft | 222 kts | 308° |
| 2026-05-07 18:33 | 43.68235 | 10.24021 | 3984 ft | 220 kts | 308° |
| 2026-05-07 18:33 | 43.69178 | 10.22373 | 3982 ft | 218 kts | 308° |
| 2026-05-07 18:33 | 43.70114 | 10.20735 | 3984 ft | 216 kts | 308° |
| 2026-05-07 18:33 | 43.71048 | 10.19096 | 3983 ft | 218 kts | 307° |
| 2026-05-07 18:34 | 43.71983 | 10.17456 | 3856 ft | 217 kts | 308° |
| 2026-05-07 18:34 | 43.72814 | 10.15727 | 3563 ft | 218 kts | 287° |
| 2026-05-07 18:34 | 43.72763 | 10.13681 | 3240 ft | 218 kts | 247° |
| 2026-05-07 18:34 | 43.71847 | 10.12042 | 3047 ft | 219 kts | 215° |
| 2026-05-07 18:35 | 43.70420 | 10.11418 | 2997 ft | 217 kts | 175° |
| 2026-05-07 18:35 | 43.68975 | 10.11631 | 2914 ft | 203 kts | 189° |
| 2026-05-07 18:35 | 43.67657 | 10.11062 | 2745 ft | 194 kts | 200° |
| 2026-05-07 18:35 | 43.66416 | 10.10504 | 2636 ft | 182 kts | 198° |
| 2026-05-07 18:36 | 43.65207 | 10.10012 | 2525 ft | 181 kts | 197° |
| 2026-05-07 18:36 | 43.64055 | 10.09348 | 2498 ft | 179 kts | 209° |
| 2026-05-07 18:36 | 43.62955 | 10.08556 | 2501 ft | 178 kts | 208° |
| 2026-05-07 18:36 | 43.61851 | 10.07765 | 2493 ft | 179 kts | 209° |
| 2026-05-07 18:37 | 43.60692 | 10.07300 | 2460 ft | 180 kts | 172° |
| 2026-05-07 18:37 | 43.59628 | 10.08130 | 2511 ft | 179 kts | 136° |
| 2026-05-07 18:37 | 43.58707 | 10.09313 | 2501 ft | 183 kts | 139° |
| 2026-05-07 18:37 | 43.57729 | 10.10471 | 2510 ft | 190 kts | 141° |
| 2026-05-07 18:38 | 43.56699 | 10.11634 | 2501 ft | 192 kts | 142° |
| 2026-05-07 18:38 | 43.55643 | 10.12780 | 2497 ft | 193 kts | 142° |
| 2026-05-07 18:38 | 43.54575 | 10.13910 | 2491 ft | 194 kts | 143° |
| 2026-05-07 18:38 | 43.53469 | 10.15061 | 2126 ft | 207 kts | 143° |
| 2026-05-07 18:39 | 43.52357 | 10.16211 | 2029 ft | 192 kts | 143° |
| 2026-05-07 18:39 | 43.51331 | 10.17266 | 1999 ft | 178 kts | 144° |
| 2026-05-07 18:39 | 43.50476 | 10.18489 | 1968 ft | 179 kts | 111° |
| 2026-05-07 18:39 | 43.50524 | 10.20090 | 1989 ft | 170 kts | 58° |
| 2026-05-07 18:40 | 43.51308 | 10.21260 | 2013 ft | 167 kts | 43° |
| 2026-05-07 18:40 | 43.52163 | 10.22332 | 2000 ft | 167 kts | 39° |
| 2026-05-07 18:40 | 43.53066 | 10.23370 | 1992 ft | 167 kts | 37° |
| 2026-05-07 18:40 | 43.53971 | 10.24354 | 1981 ft | 165 kts | 36° |
| 2026-05-07 18:41 | 43.54863 | 10.25336 | 1984 ft | 164 kts | 37° |
| 2026-05-07 18:41 | 43.55746 | 10.26312 | 1981 ft | 163 kts | 36° |
| 2026-05-07 18:41 | 43.56658 | 10.27276 | 2009 ft | 167 kts | 36° |
| 2026-05-07 18:41 | 43.57560 | 10.28217 | 2012 ft | 161 kts | 35° |
| 2026-05-07 18:42 | 43.58442 | 10.29132 | 1996 ft | 158 kts | 35° |
| 2026-05-07 18:42 | 43.59320 | 10.30041 | 1976 ft | 158 kts | 35° |
| 2026-05-07 18:42 | 43.60204 | 10.30957 | 1792 ft | 159 kts | 35° |
| 2026-05-07 18:42 | 43.61078 | 10.31863 | 1593 ft | 157 kts | 34° |
| 2026-05-07 18:43 | 43.61958 | 10.32773 | 1391 ft | 161 kts | 34° |
| 2026-05-07 18:43 | 43.62861 | 10.33709 | 1162 ft | 160 kts | 35° |
| 2026-05-07 18:43 | 43.63734 | 10.34614 | 944 ft | 154 kts | 34° |
| 2026-05-07 18:43 | 43.64579 | 10.35489 | 728 ft | 150 kts | 35° |
| 2026-05-07 18:44 | 43.65415 | 10.36354 | 535 ft | 150 kts | 34° |
| 2026-05-07 18:44 | 43.66250 | 10.37220 | 333 ft | 150 kts | 33° |
| 2026-05-07 18:44 | 43.67085 | 10.38084 | 117 ft | 151 kts | 34° |
| 2026-05-07 18:44 | 43.67911 | 10.38935 | 6 ft | 143 kts | 36° |
| 2026-05-07 18:45 | 43.68585 | 10.39638 | 7 ft | 100 kts | 37° |
| 2026-05-07 18:45 | 43.69006 | 10.40072 | 8 ft | 44 kts | 37° |
| 2026-05-07 18:45 | 43.69201 | 10.40276 | 9 ft | 33 kts | 37° |
| 2026-05-07 18:45 | 43.69312 | 10.40236 | 9 ft | 17 kts | 307° |
| 2026-05-07 18:46 | 43.69382 | 10.40114 | 10 ft | 16 kts | 322° |
| 2026-05-07 18:46 | 43.69488 | 10.40085 | 10 ft | 15 kts | 351° |
| 2026-05-07 18:46 | 43.69591 | 10.40065 | 10 ft | 15 kts | 352° |
| 2026-05-07 18:46 | 43.69671 | 10.40039 | 12 ft | 8 kts | 318° |
| 2026-05-07 18:47 | 43.69716 | 10.40025 | 10 ft | 6 kts | 7° |
| 2026-05-07 18:47 | 43.69742 | 10.40031 | 10 ft | 1 kts | 9° |
| 2026-05-07 18:47 | 43.69745 | 10.40031 | 10 ft | 0 kts | 9° |